aviador You're here:

KSPW Decoded Metar

SPENCER in IA, USA
Report Time2017-08-22 21:53:00
UTC Time2017-08-22 22:25:24
Flight Rules vfr VFR
Wind320° at 11 Gusting to 20 kt
W.Decomp.*RWY 30: 10.6 kt HW 2.8 kt RCW
RWY 36: 7.8 kt HW 7.8 kt LCW
W.Rank320° ranks 11
Current wind is above 320° avg. (9.8)
Visibility9999 m
Phenomena:N/A
Clouds:N/A
Expected CloudBase > 6,000 ft AGL from Temp-Dew spread
CeilingNone
Temp23°C (ISA +11)
Dew Point08°C (38% RH)
AAT18.6°C
QNH1020 hPa
Density Alt2,467 ft
Elevation1,322 ft
Report Wrong Elevation
Raw Report
KSPW 222153Z AUTO 32011G20KT 10SM CLR 23/08 A3013 RMK AO2 SLP200
T02330083=

Extra information for KSPW:More info

Metar Taf Metar & Taf Last 4 Metars F.Rules Stats Wind Profile Meteogram Temp Stats Airport Information Weather charts Add Link Nearby VenuesMetar ALERT Operation Metar Decoded Social comments

AIRNAV info for KSPW